Terminal Aerodrome Forecast
Issued by NWS

Home | Current Version | Previous Version | Text Only | Print | Product List | Glossary On
Versions: 1 2 3 4 5 6 7 8 9 10 11 12 13 14 15 16 17
000
FTAK31 PANC 271159 AAA
TAFADL
TAF AMD
PADL 271159Z 2712/2812 02007KT P6SM SKC WS010/02035KT
      TEMPO 2712/2714 02012G20KT
     FM271400 06012KT P6SM SKC
     FM280000 14010KT P6SM SCT050=

USA.gov is the U.S. government's official web portal to all federal, state and local government web resources and services.